createdAt,value
2022-12-22T00:00:08.918Z,15.75
2022-12-22T00:02:54.297Z,15.27
2022-12-22T00:05:41.625Z,14.68
2022-12-22T00:08:27.463Z,15.75
2022-12-22T00:11:14.671Z,16.05
2022-12-22T00:14:02.706Z,15.40
2022-12-22T00:16:53.568Z,15.70
2022-12-22T00:19:39.754Z,14.80
2022-12-22T00:22:35.464Z,14.65
2022-12-22T00:25:20.995Z,14.82
2022-12-22T00:28:06.420Z,13.80
2022-12-22T00:30:51.775Z,14.15
2022-12-22T00:33:38.813Z,14.00
2022-12-22T00:36:26.355Z,14.27
2022-12-22T00:39:11.574Z,14.20
2022-12-22T00:41:56.984Z,14.95
2022-12-22T00:44:42.346Z,14.30
2022-12-22T00:47:37.252Z,13.68
2022-12-22T00:50:23.477Z,15.43
2022-12-22T00:53:08.940Z,15.18
2022-12-22T00:55:54.219Z,14.85
2022-12-22T00:58:39.435Z,14.63
2022-12-22T01:01:24.983Z,14.55
2022-12-22T01:04:10.406Z,14.57
2022-12-22T01:06:55.709Z,14.85
2022-12-22T01:09:42.096Z,14.13
2022-12-22T01:12:39.966Z,14.88
2022-12-22T01:15:31.559Z,14.80
2022-12-22T01:18:16.832Z,14.68
2022-12-22T01:21:02.148Z,16.25
2022-12-22T01:23:47.417Z,15.43
2022-12-22T01:26:32.881Z,15.05
2022-12-22T01:29:18.273Z,15.10
2022-12-22T01:32:03.637Z,15.85
2022-12-22T01:34:48.810Z,15.45
2022-12-22T01:37:34.300Z,15.15
2022-12-22T01:40:19.796Z,15.30
2022-12-22T01:43:04.929Z,15.10
2022-12-22T01:45:54.332Z,15.50
2022-12-22T01:48:48.830Z,15.15
2022-12-22T01:51:45.851Z,15.93
2022-12-22T01:54:33.018Z,15.95
2022-12-22T01:57:18.847Z,14.88
2022-12-22T02:00:04.039Z,15.07
2022-12-22T02:02:51.483Z,14.15
2022-12-22T02:05:38.638Z,15.00
2022-12-22T02:08:42.774Z,14.75
2022-12-22T02:11:51.024Z,14.23
2022-12-22T02:15:01.541Z,14.85
2022-12-22T02:18:08.154Z,14.02
2022-12-22T02:21:01.776Z,13.73
2022-12-22T02:23:59.376Z,13.48
2022-12-22T02:26:52.171Z,13.52
2022-12-22T02:29:43.523Z,13.02
2022-12-22T02:32:29.834Z,13.00
2022-12-22T02:35:15.724Z,13.85
2022-12-22T02:38:21.355Z,12.85
2022-12-22T02:41:17.995Z,13.15
2022-12-22T02:44:44.962Z,12.68
2022-12-22T02:47:46.194Z,12.57
2022-12-22T02:50:44.304Z,13.35
2022-12-22T02:53:32.165Z,12.88
2022-12-22T02:56:21.072Z,12.07
2022-12-22T02:59:10.258Z,12.80
2022-12-22T03:01:57.408Z,12.52
2022-12-22T03:04:42.843Z,11.95
2022-12-22T03:07:28.217Z,11.40
2022-12-22T03:10:13.392Z,12.13
2022-12-22T03:12:58.675Z,11.02
2022-12-22T03:15:44.000Z,11.45
2022-12-22T03:18:30.922Z,10.40
2022-12-22T03:21:16.612Z,10.10
2022-12-22T03:24:02.439Z,11.00
2022-12-22T03:26:30.122Z,10.30
2022-12-22T03:28:56.874Z,9.32
2022-12-22T03:31:23.702Z,10.57
2022-12-22T03:33:50.449Z,10.80
2022-12-22T03:36:17.202Z,9.77
2022-12-22T03:38:43.924Z,9.35
2022-12-22T03:41:30.646Z,10.55
2022-12-22T03:44:16.030Z,9.23
2022-12-22T03:46:42.782Z,10.05
2022-12-22T03:49:12.525Z,10.27
2022-12-22T03:51:46.557Z,9.85
2022-12-22T03:54:22.476Z,11.18
2022-12-22T03:56:49.788Z,10.07
2022-12-22T03:59:17.650Z,9.98
2022-12-22T04:01:47.123Z,10.38
2022-12-22T04:04:15.503Z,11.10
2022-12-22T04:06:42.959Z,10.32
2022-12-22T04:09:10.073Z,10.38
2022-12-22T04:12:12.202Z,10.35
2022-12-22T04:14:39.747Z,9.95
2022-12-22T04:17:07.164Z,9.60
2022-12-22T04:19:34.250Z,10.65
2022-12-22T04:22:01.340Z,10.60
2022-12-22T04:24:28.053Z,10.80
2022-12-22T04:26:54.805Z,10.90
2022-12-22T04:29:21.445Z,10.15
2022-12-22T04:31:48.221Z,10.68
2022-12-22T04:34:15.047Z,9.80
2022-12-22T04:36:41.694Z,11.18
2022-12-22T04:39:08.468Z,10.10
2022-12-22T04:41:35.139Z,10.07
2022-12-22T04:44:02.111Z,11.23
2022-12-22T04:46:28.892Z,11.88
2022-12-22T04:48:59.831Z,11.48
2022-12-22T04:51:27.738Z,10.38
2022-12-22T04:53:54.454Z,10.93
2022-12-22T04:56:21.434Z,11.27
2022-12-22T04:58:48.085Z,10.93
2022-12-22T05:01:18.399Z,11.18
2022-12-22T05:03:45.772Z,12.98
2022-12-22T05:06:13.134Z,10.77
2022-12-22T05:08:40.057Z,11.43
2022-12-22T05:11:07.345Z,11.07
2022-12-22T05:13:34.108Z,10.82
2022-12-22T05:16:10.173Z,10.85
2022-12-22T05:18:38.096Z,11.13
2022-12-22T05:21:16.582Z,11.77
2022-12-22T05:23:44.055Z,11.00
2022-12-22T05:26:14.447Z,11.73
2022-12-22T05:28:42.596Z,11.23
2022-12-22T05:31:14.238Z,11.13
2022-12-22T05:33:41.084Z,10.82
2022-12-22T05:36:08.230Z,12.45
2022-12-22T05:38:35.182Z,12.32
2022-12-22T05:41:04.628Z,11.48
2022-12-22T05:43:32.696Z,11.68
2022-12-22T05:46:08.047Z,11.07
2022-12-22T05:48:38.568Z,11.18
2022-12-22T05:51:10.026Z,10.88
2022-12-22T05:53:38.893Z,12.27
2022-12-22T05:56:06.531Z,12.10
2022-12-22T05:58:34.906Z,12.73
2022-12-22T06:01:01.800Z,11.65
2022-12-22T06:03:29.760Z,12.18
2022-12-22T06:05:57.891Z,12.10
2022-12-22T06:08:25.128Z,12.40
2022-12-22T06:10:55.047Z,11.82
2022-12-22T06:13:21.976Z,13.02
2022-12-22T06:15:49.203Z,11.48
2022-12-22T06:18:16.125Z,13.38
2022-12-22T06:20:42.862Z,13.05
2022-12-22T06:23:09.640Z,12.82
2022-12-22T06:25:36.319Z,13.43
2022-12-22T06:28:03.098Z,13.63
2022-12-22T06:30:33.620Z,13.02
2022-12-22T06:33:01.218Z,13.40
2022-12-22T06:35:28.553Z,12.95
2022-12-22T06:37:55.382Z,12.98
2022-12-22T06:40:22.335Z,15.50
2022-12-22T06:43:09.025Z,13.95
2022-12-22T06:45:39.398Z,13.48
2022-12-22T06:48:07.939Z,13.52
2022-12-22T06:50:34.832Z,14.27
2022-12-22T06:53:02.009Z,14.43
2022-12-22T06:55:28.841Z,13.80
2022-12-22T06:57:55.510Z,13.50
2022-12-22T07:00:22.486Z,13.15
2022-12-22T07:02:49.550Z,14.43
2022-12-22T07:05:16.867Z,14.30
2022-12-22T07:07:43.844Z,14.35
2022-12-22T07:10:10.738Z,14.70
2022-12-22T07:12:37.491Z,14.13
2022-12-22T07:15:04.793Z,14.00
2022-12-22T07:17:31.485Z,14.38
2022-12-22T07:19:58.166Z,14.40
2022-12-22T07:22:29.777Z,14.23
2022-12-22T07:24:57.936Z,13.85
2022-12-22T07:27:24.716Z,15.38
2022-12-22T07:29:51.394Z,14.20
2022-12-22T07:32:18.042Z,14.02
2022-12-22T07:34:45.137Z,14.25
2022-12-22T07:37:13.648Z,14.60
2022-12-22T07:39:40.509Z,13.82
2022-12-22T07:42:25.617Z,13.82
2022-12-22T07:44:52.350Z,13.98
2022-12-22T07:47:19.140Z,14.55
2022-12-22T07:50:04.362Z,14.65
2022-12-22T07:52:31.391Z,14.57
2022-12-22T07:54:58.157Z,14.18
2022-12-22T07:57:26.213Z,13.13
2022-12-22T07:59:53.999Z,14.43
2022-12-22T08:02:20.860Z,14.45
2022-12-22T08:04:47.693Z,13.25
2022-12-22T08:07:14.435Z,13.70
2022-12-22T08:09:41.093Z,13.63
2022-12-22T08:12:10.886Z,13.85
2022-12-22T08:14:37.600Z,13.52
2022-12-22T08:17:04.305Z,13.35
2022-12-22T08:19:32.806Z,12.65
2022-12-22T08:22:00.783Z,12.85
2022-12-22T08:24:27.598Z,12.57
2022-12-22T08:26:59.611Z,13.32
2022-12-22T08:29:33.919Z,14.10
2022-12-22T08:32:01.480Z,12.73
2022-12-22T08:34:28.687Z,13.98
2022-12-22T08:36:59.275Z,14.45
2022-12-22T08:39:28.927Z,12.60
2022-12-22T08:41:55.704Z,13.10
2022-12-22T08:44:28.056Z,13.07
2022-12-22T08:46:56.872Z,12.88
2022-12-22T08:49:24.305Z,13.10
2022-12-22T08:51:51.443Z,12.98
2022-12-22T08:54:18.975Z,12.77
2022-12-22T08:56:45.731Z,13.20
2022-12-22T08:59:13.228Z,14.63
2022-12-22T09:01:44.233Z,12.60
2022-12-22T09:04:16.414Z,12.88
2022-12-22T09:06:43.217Z,13.40
2022-12-22T09:09:12.336Z,13.45
2022-12-22T09:11:40.330Z,13.90
2022-12-22T09:14:10.890Z,13.00
2022-12-22T09:16:39.000Z,13.25
2022-12-22T09:19:06.795Z,13.80
2022-12-22T09:21:34.346Z,13.77
2022-12-22T09:24:04.543Z,14.30
2022-12-22T09:26:32.497Z,13.18
2022-12-22T09:28:59.874Z,13.48
2022-12-22T09:31:27.216Z,14.32
2022-12-22T09:33:54.029Z,12.75
2022-12-22T09:36:24.622Z,13.90
2022-12-22T09:38:51.630Z,13.68
2022-12-22T09:41:21.268Z,12.80
2022-12-22T09:43:48.196Z,13.75
2022-12-22T09:46:27.127Z,13.30
2022-12-22T09:48:55.013Z,12.98
2022-12-22T09:51:27.095Z,14.65
2022-12-22T09:53:59.272Z,13.27
2022-12-22T09:56:27.900Z,12.90
2022-12-22T09:58:54.903Z,12.63
2022-12-22T10:01:54.503Z,12.90
2022-12-22T10:04:27.387Z,12.70
2022-12-22T10:07:06.283Z,12.70
2022-12-22T10:09:52.199Z,12.13
2022-12-22T10:12:26.141Z,13.95
2022-12-22T10:14:54.334Z,12.75
2022-12-22T10:17:33.623Z,13.55
2022-12-22T10:20:19.209Z,13.68
2022-12-22T10:22:48.395Z,12.43
2022-12-22T10:25:52.583Z,12.45
2022-12-22T10:28:33.363Z,13.10
2022-12-22T10:31:11.000Z,12.88
2022-12-22T10:33:45.860Z,13.23
2022-12-22T10:36:16.591Z,12.93
2022-12-22T10:38:57.429Z,13.27
2022-12-22T10:41:27.486Z,11.95
2022-12-22T10:44:05.071Z,13.20
2022-12-22T10:46:38.911Z,12.85
2022-12-22T10:52:16.903Z,13.50
2022-12-22T10:54:45.586Z,12.05
2022-12-22T10:57:15.347Z,11.45
2022-12-22T10:59:52.720Z,12.10
2022-12-22T11:02:26.917Z,10.95
2022-12-22T11:05:00.379Z,12.23
2022-12-22T11:07:31.291Z,11.82
2022-12-22T11:09:58.197Z,11.30
2022-12-22T11:12:48.264Z,11.00
2022-12-22T11:15:27.829Z,11.23
2022-12-22T11:18:14.091Z,11.68
2022-12-22T11:21:03.102Z,12.50
2022-12-22T11:23:57.112Z,11.73
2022-12-22T11:26:29.591Z,13.05
2022-12-22T11:28:59.288Z,11.90
2022-12-22T11:31:34.589Z,11.20
2022-12-22T11:34:31.774Z,11.55
2022-12-22T11:37:13.672Z,10.93
2022-12-22T11:39:46.409Z,11.52
2022-12-22T11:42:50.809Z,11.13
2022-12-22T11:45:43.666Z,11.63
2022-12-22T11:48:55.083Z,10.98
2022-12-22T11:51:46.194Z,10.30
2022-12-22T11:54:41.376Z,10.15
2022-12-22T11:57:33.724Z,10.45
2022-12-22T12:00:19.394Z,9.50
2022-12-22T12:03:07.802Z,10.45
2022-12-22T12:05:37.637Z,9.70
2022-12-22T12:08:21.799Z,9.00
2022-12-22T12:11:18.564Z,9.55
2022-12-22T12:14:01.013Z,8.70
2022-12-22T12:16:40.029Z,7.93
2022-12-22T12:19:06.828Z,8.13
2022-12-22T12:21:33.694Z,8.10
2022-12-22T12:24:26.597Z,7.78
2022-12-22T12:27:24.868Z,8.48
2022-12-22T12:33:23.991Z,7.97
2022-12-22T12:36:20.209Z,7.07
2022-12-22T12:39:07.558Z,8.48
2022-12-22T12:41:41.116Z,8.98
2022-12-22T12:44:14.472Z,9.27
2022-12-22T12:46:50.620Z,8.65
2022-12-22T12:49:36.211Z,9.18
2022-12-22T12:52:04.077Z,8.95
2022-12-22T12:54:41.471Z,9.07
2022-12-22T12:57:30.529Z,9.18
2022-12-22T12:59:59.712Z,9.05
2022-12-22T13:02:38.305Z,9.68
2022-12-22T13:05:26.954Z,8.95
2022-12-22T13:08:25.674Z,9.38
2022-12-22T13:10:55.477Z,9.32
2022-12-22T13:13:22.224Z,8.90
2022-12-22T13:16:02.378Z,9.23
2022-12-22T13:18:29.645Z,10.35
2022-12-22T13:21:51.677Z,8.68
2022-12-22T13:24:25.340Z,9.65
2022-12-22T13:26:55.362Z,8.68
2022-12-22T13:29:23.791Z,9.18
2022-12-22T13:31:52.671Z,8.60
2022-12-22T13:34:22.562Z,8.63
2022-12-22T13:36:51.072Z,8.07
2022-12-22T13:39:17.788Z,8.27
2022-12-22T13:41:47.197Z,9.55
2022-12-22T13:44:17.629Z,9.02
2022-12-22T13:46:44.801Z,9.73
2022-12-22T13:49:43.330Z,8.85
2022-12-22T13:52:06.592Z,9.55
2022-12-22T13:54:37.422Z,8.73
2022-12-22T13:57:12.747Z,8.85
2022-12-22T13:59:42.051Z,9.52
2022-12-22T14:02:09.036Z,8.50
2022-12-22T14:04:42.737Z,8.80
2022-12-22T14:07:13.851Z,8.23
2022-12-22T14:09:48.707Z,9.38
2022-12-22T14:12:38.644Z,10.18
2022-12-22T14:15:12.140Z,9.20
2022-12-22T14:17:43.378Z,8.32
2022-12-22T14:20:21.879Z,10.15
2022-12-22T14:23:01.489Z,10.10
2022-12-22T14:25:37.613Z,9.88
2022-12-22T14:28:11.933Z,10.00
2022-12-22T14:30:43.924Z,9.23
2022-12-22T14:33:32.520Z,9.82
2022-12-22T14:36:26.394Z,9.15
2022-12-22T14:38:53.089Z,9.77
2022-12-22T14:41:43.313Z,9.32
2022-12-22T14:44:25.654Z,9.90
2022-12-22T14:47:22.850Z,10.02
2022-12-22T14:49:52.798Z,9.63
2022-12-22T14:52:33.310Z,9.65
2022-12-22T14:55:02.303Z,10.05
2022-12-22T14:57:36.194Z,9.43
2022-12-22T15:00:29.318Z,9.50
2022-12-22T15:02:59.455Z,9.63
2022-12-22T15:05:27.626Z,9.23
2022-12-22T15:08:07.505Z,10.00
2022-12-22T15:10:44.212Z,9.35
2022-12-22T15:13:18.904Z,10.50
2022-12-22T15:15:45.694Z,10.50
2022-12-22T15:18:15.207Z,9.45
2022-12-22T15:20:42.152Z,10.07
2022-12-22T15:23:14.743Z,10.85
2022-12-22T15:25:41.678Z,10.38
2022-12-22T15:28:09.317Z,9.88
2022-12-22T15:30:36.238Z,9.85
2022-12-22T15:33:03.269Z,9.73
2022-12-22T15:35:32.830Z,10.20
2022-12-22T15:38:00.743Z,10.13
2022-12-22T15:40:30.559Z,10.13
2022-12-22T15:42:57.299Z,10.27
2022-12-22T15:45:24.162Z,9.77
2022-12-22T15:47:53.318Z,9.65
2022-12-22T15:50:25.499Z,9.98
2022-12-22T15:52:55.124Z,10.68
2022-12-22T15:55:23.579Z,11.02
2022-12-22T15:57:55.299Z,10.13
2022-12-22T16:00:23.002Z,11.02
2022-12-22T16:02:50.341Z,10.85
2022-12-22T16:05:21.450Z,10.65
2022-12-22T16:07:48.483Z,10.50
2022-12-22T16:10:29.641Z,10.43
2022-12-22T16:13:00.539Z,10.27
2022-12-22T16:15:33.001Z,9.50
2022-12-22T16:18:01.283Z,9.77
2022-12-22T16:20:37.358Z,9.55
2022-12-22T16:23:06.585Z,8.90
2022-12-22T16:25:38.587Z,8.43
2022-12-22T16:30:34.453Z,7.60
2022-12-22T16:33:01.359Z,8.75
2022-12-22T16:35:30.035Z,7.55
2022-12-22T16:37:58.761Z,7.90
2022-12-22T16:40:27.647Z,7.50
2022-12-22T16:45:55.014Z,7.53
2022-12-22T16:48:29.479Z,8.55
2022-12-22T16:50:56.299Z,8.43
2022-12-22T16:53:23.103Z,9.25
2022-12-22T16:55:49.942Z,8.45
2022-12-22T16:58:16.934Z,7.97
2022-12-22T17:00:45.346Z,7.40
2022-12-22T17:03:13.231Z,7.22
2022-12-22T17:05:46.265Z,6.72
2022-12-22T17:08:27.171Z,6.75
2022-12-22T17:10:56.550Z,6.40
2022-12-22T17:13:24.421Z,6.75
2022-12-22T17:15:51.298Z,6.13
2022-12-22T17:18:20.635Z,7.13
2022-12-22T17:20:50.237Z,6.35
2022-12-22T17:23:38.257Z,5.70
2022-12-22T17:26:11.312Z,6.35
2022-12-22T17:28:38.969Z,5.18
2022-12-22T17:31:06.187Z,4.05
2022-12-22T17:33:33.390Z,4.40
2022-12-22T17:36:01.335Z,5.28
2022-12-22T17:38:28.913Z,5.72
2022-12-22T17:40:57.645Z,4.68
2022-12-22T17:43:27.478Z,4.72
2022-12-22T17:45:54.243Z,4.38
2022-12-22T17:48:21.015Z,4.93
2022-12-22T17:50:50.750Z,4.45
2022-12-22T17:53:20.003Z,4.50
2022-12-22T17:58:34.718Z,3.75
2022-12-22T18:01:01.486Z,4.53
2022-12-22T18:03:28.300Z,4.25
2022-12-22T18:05:55.505Z,3.78
2022-12-22T18:08:22.309Z,3.92
2022-12-22T18:10:50.441Z,4.07
2022-12-22T18:13:25.085Z,4.25
2022-12-22T18:15:53.122Z,3.67
2022-12-22T18:18:22.111Z,4.05
2022-12-22T18:21:06.586Z,4.38
2022-12-22T18:23:38.644Z,4.20
2022-12-22T18:26:28.575Z,4.88
2022-12-22T18:28:56.258Z,4.45
2022-12-22T18:31:24.376Z,4.82
2022-12-22T18:33:51.586Z,4.97
2022-12-22T18:36:45.718Z,5.05
2022-12-22T18:39:21.048Z,4.55
2022-12-22T18:41:48.184Z,5.53
2022-12-22T18:44:17.915Z,4.60
2022-12-22T18:46:45.809Z,4.38
2022-12-22T18:49:13.074Z,4.15
2022-12-22T18:51:39.843Z,4.05
2022-12-22T18:54:21.307Z,4.30
2022-12-22T18:56:51.229Z,6.32
2022-12-22T18:59:24.201Z,4.10
2022-12-22T19:01:52.454Z,4.05
2022-12-22T19:04:19.579Z,3.67
2022-12-22T19:06:46.370Z,3.63
2022-12-22T19:09:16.319Z,4.20
2022-12-22T19:11:43.611Z,4.38
2022-12-22T19:14:18.755Z,3.35
2022-12-22T19:16:46.692Z,3.38
2022-12-22T19:19:18.918Z,3.28
2022-12-22T19:21:46.962Z,3.20
2022-12-22T19:24:13.935Z,2.85
2022-12-22T19:26:40.988Z,3.25
2022-12-22T19:29:09.874Z,3.40
2022-12-22T19:31:38.120Z,3.60
2022-12-22T19:34:10.374Z,3.92
2022-12-22T19:36:37.183Z,4.35
2022-12-22T19:39:05.851Z,4.55
2022-12-22T19:41:50.966Z,4.63
2022-12-22T19:44:27.574Z,4.90
2022-12-22T19:46:56.164Z,5.05
2022-12-22T19:49:25.307Z,5.45
2022-12-22T19:51:52.063Z,6.13
2022-12-22T19:54:22.190Z,6.88
2022-12-22T19:56:53.587Z,6.90
2022-12-22T19:59:42.018Z,6.60
2022-12-22T20:02:21.909Z,7.00
2022-12-22T20:04:50.334Z,7.93
2022-12-22T20:07:19.615Z,7.55
2022-12-22T20:09:46.772Z,8.98
2022-12-22T20:12:28.685Z,8.55
2022-12-22T20:14:56.111Z,9.38
2022-12-22T20:17:23.085Z,9.13
2022-12-22T20:19:51.696Z,9.18
2022-12-22T20:22:21.013Z,9.07
2022-12-22T20:24:49.316Z,9.95
2022-12-22T20:27:27.509Z,10.02
2022-12-22T20:32:27.657Z,9.30
2022-12-22T20:34:55.778Z,9.50
2022-12-22T20:37:22.652Z,9.90
2022-12-22T20:39:50.006Z,9.52
2022-12-22T20:42:22.414Z,8.85
2022-12-22T20:45:03.804Z,9.20
2022-12-22T20:47:33.891Z,8.82
2022-12-22T20:50:01.554Z,8.73
2022-12-22T20:52:28.592Z,10.05
2022-12-22T20:54:55.684Z,9.50
2022-12-22T20:57:23.585Z,8.48
2022-12-22T20:59:56.038Z,9.73
2022-12-22T21:02:28.534Z,9.57
2022-12-22T21:04:58.456Z,8.23
2022-12-22T21:07:25.451Z,8.82
2022-12-22T21:09:52.211Z,9.27
2022-12-22T21:12:18.939Z,9.48
2022-12-22T21:14:45.834Z,8.40
2022-12-22T21:17:17.031Z,9.40
2022-12-22T21:19:44.511Z,9.02
2022-12-22T21:22:11.721Z,9.25
2022-12-22T21:24:38.695Z,9.63
2022-12-22T21:27:06.141Z,9.43
2022-12-22T21:29:33.051Z,10.02
2022-12-22T21:32:00.341Z,9.93
2022-12-22T21:34:27.048Z,8.68
2022-12-22T21:36:59.803Z,9.80
2022-12-22T21:39:41.635Z,8.32
2022-12-22T21:42:19.957Z,9.15
2022-12-22T21:44:47.039Z,7.85
2022-12-22T21:47:16.557Z,9.63
2022-12-22T21:49:43.464Z,8.77
2022-12-22T21:52:10.341Z,8.60
2022-12-22T21:54:37.129Z,8.48
2022-12-22T21:57:04.368Z,9.25
2022-12-22T21:59:31.224Z,8.75
2022-12-22T22:01:58.192Z,8.60
2022-12-22T22:04:25.304Z,8.77
2022-12-22T22:06:52.095Z,8.10
2022-12-22T22:09:18.966Z,8.57
2022-12-22T22:12:04.477Z,8.38
2022-12-22T22:14:31.218Z,9.13
2022-12-22T22:16:57.914Z,10.57
2022-12-22T22:19:24.680Z,9.48
2022-12-22T22:21:51.417Z,10.35
2022-12-22T22:24:18.256Z,9.45
2022-12-22T22:26:46.458Z,10.02
2022-12-22T22:29:13.281Z,9.88
2022-12-22T22:31:41.294Z,10.80
2022-12-22T22:34:08.627Z,10.50
2022-12-22T22:36:35.320Z,11.18
2022-12-22T22:39:02.129Z,11.75
2022-12-22T22:41:32.413Z,11.57
2022-12-22T22:44:01.977Z,10.80
2022-12-22T22:46:28.854Z,12.05
2022-12-22T22:48:58.495Z,11.85
2022-12-22T22:51:25.493Z,11.73
2022-12-22T22:53:52.418Z,11.00
2022-12-22T22:56:19.521Z,10.93
2022-12-22T22:58:46.501Z,12.68
2022-12-22T23:01:13.540Z,11.88
2022-12-22T23:03:40.482Z,12.07
2022-12-22T23:06:10.655Z,11.85
2022-12-22T23:08:37.879Z,11.82
2022-12-22T23:11:06.060Z,12.40
2022-12-22T23:13:32.911Z,12.60
2022-12-22T23:16:02.515Z,13.02
2022-12-22T23:18:30.709Z,11.65
2022-12-22T23:20:59.295Z,12.55
2022-12-22T23:23:26.465Z,12.25
2022-12-22T23:25:53.406Z,12.10
2022-12-22T23:28:20.335Z,11.57
2022-12-22T23:30:49.699Z,11.13
2022-12-22T23:33:17.416Z,11.77
2022-12-22T23:35:48.037Z,10.90
2022-12-22T23:38:15.857Z,11.18
2022-12-22T23:40:58.250Z,11.23
2022-12-22T23:43:25.042Z,11.02
2022-12-22T23:45:51.895Z,10.95
2022-12-22T23:48:18.920Z,11.50
2022-12-22T23:50:47.098Z,10.65
2022-12-22T23:53:14.782Z,11.32
2022-12-22T23:55:45.736Z,10.73
2022-12-22T23:58:13.014Z,11.35
